createdAt,value
2022-10-11T00:04:06.945Z,4.22
2022-10-11T00:14:09.906Z,4.08
2022-10-11T00:24:16.098Z,3.96
2022-10-11T00:34:19.046Z,3.87
2022-10-11T00:44:25.739Z,3.83
2022-10-11T00:54:32.677Z,3.77
2022-10-11T01:04:37.125Z,3.68
2022-10-11T01:15:15.479Z,3.57
2022-10-11T01:25:31.007Z,3.47
2022-10-11T01:35:42.675Z,3.37
2022-10-11T01:45:49.098Z,3.30
2022-10-11T01:55:58.436Z,3.21
2022-10-11T02:06:09.172Z,3.14
2022-10-11T02:16:19.453Z,3.05
2022-10-11T02:26:24.707Z,2.97
2022-10-11T02:36:37.378Z,2.93
2022-10-11T02:46:41.914Z,2.88
2022-10-11T02:56:46.251Z,2.82
2022-10-11T03:06:49.161Z,2.77
2022-10-11T03:16:53.469Z,2.73
2022-10-11T03:26:56.512Z,2.64
2022-10-11T03:37:00.797Z,2.63
2022-10-11T03:47:03.745Z,2.62
2022-10-11T03:57:08.060Z,2.56
2022-10-11T04:07:11.343Z,2.45
2022-10-11T04:17:15.747Z,2.45
2022-10-11T04:27:18.711Z,2.48
2022-10-11T04:37:22.986Z,2.42
2022-10-11T04:47:26.063Z,2.37
2022-10-11T04:57:30.307Z,2.29
2022-10-11T05:07:33.405Z,2.28
2022-10-11T05:17:37.734Z,2.22
2022-10-11T05:27:40.718Z,2.16
2022-10-11T05:37:45.040Z,2.11
2022-10-11T05:47:48.009Z,2.13
2022-10-11T05:57:54.714Z,2.16
2022-10-11T06:07:58.943Z,2.13
2022-10-11T06:18:03.254Z,2.18
2022-10-11T06:28:06.327Z,2.30
2022-10-11T06:38:10.924Z,2.43
2022-10-11T06:48:14.097Z,2.60
2022-10-11T06:58:18.742Z,2.88
2022-10-11T07:08:21.724Z,3.19
2022-10-11T07:18:26.053Z,3.51
2022-10-11T07:28:30.694Z,3.99
2022-10-11T07:38:41.004Z,4.68
2022-10-11T07:48:44.007Z,5.13
2022-10-11T07:58:52.177Z,5.55
2022-10-11T08:08:55.387Z,6.00
2022-10-11T08:19:01.017Z,6.49
2022-10-11T08:29:05.441Z,7.01
2022-10-11T08:39:11.149Z,7.59
2022-10-11T08:49:17.014Z,8.16
2022-10-11T08:59:31.601Z,8.57
2022-10-11T09:09:55.782Z,9.02
2022-10-11T09:20:19.343Z,9.43
2022-10-11T09:30:22.549Z,9.71
2022-10-11T09:40:46.418Z,9.96
2022-10-11T09:50:50.448Z,10.31
2022-10-11T10:01:06.590Z,10.78
2022-10-11T10:11:12.383Z,11.21
2022-10-11T10:21:17.481Z,11.45
2022-10-11T10:31:23.410Z,11.82
2022-10-11T10:41:28.434Z,12.14
2022-10-11T10:51:40.387Z,12.41
2022-10-11T11:01:56.946Z,12.71
2022-10-11T11:12:12.888Z,12.93
2022-10-11T11:22:32.747Z,13.08
2022-10-11T11:32:49.075Z,13.32
2022-10-11T11:42:58.331Z,13.50
2022-10-11T11:53:07.755Z,13.75
2022-10-11T12:03:16.573Z,13.90
2022-10-11T12:13:22.966Z,14.17
2022-10-11T12:23:47.269Z,14.18
2022-10-11T12:33:54.427Z,14.34
2022-10-11T12:44:22.158Z,14.60
2022-10-11T12:54:46.647Z,14.65
2022-10-11T13:04:51.073Z,14.50
2022-10-11T13:15:00.827Z,14.51
2022-10-11T13:25:08.131Z,14.16
2022-10-11T13:35:21.046Z,14.01
2022-10-11T13:45:31.495Z,14.29
2022-10-11T13:55:36.790Z,14.51
2022-10-11T14:05:43.571Z,14.60
2022-10-11T14:15:46.583Z,14.64
2022-10-11T14:25:52.964Z,14.52
2022-10-11T14:35:55.970Z,14.39
2022-10-11T14:46:00.451Z,14.10
2022-10-11T14:56:04.327Z,14.05
2022-10-11T15:06:17.671Z,14.11
2022-10-11T15:16:22.565Z,14.24
2022-10-11T15:26:29.104Z,14.04
2022-10-11T15:36:32.248Z,13.88
2022-10-11T15:46:38.095Z,13.66
2022-10-11T15:56:41.136Z,13.47
2022-10-11T16:06:45.529Z,13.16
2022-10-11T16:16:48.621Z,12.83
2022-10-11T16:26:53.017Z,12.57
2022-10-11T16:36:56.162Z,12.24
2022-10-11T16:47:01.416Z,11.95
2022-10-11T16:57:05.408Z,11.55
2022-10-11T17:07:12.455Z,11.14
2022-10-11T17:17:16.526Z,10.72
2022-10-11T17:27:20.876Z,10.35
2022-10-11T17:37:23.847Z,10.00
2022-10-11T17:47:28.515Z,9.66
2022-10-11T17:57:31.550Z,9.34
2022-10-11T18:07:36.102Z,9.06
2022-10-11T18:17:39.173Z,8.74
2022-10-11T18:27:44.350Z,8.46
2022-10-11T18:37:47.175Z,8.27
2022-10-11T18:47:52.473Z,8.06
2022-10-11T18:57:55.728Z,7.86
2022-10-11T19:08:00.283Z,7.64
2022-10-11T19:18:03.343Z,7.48
2022-10-11T19:28:12.381Z,7.32
2022-10-11T19:48:29.542Z,7.13
2022-10-11T19:58:32.859Z,6.95
2022-10-11T20:08:38.083Z,6.77
2022-10-11T20:18:41.097Z,6.59
2022-10-11T20:28:46.366Z,6.39
2022-10-11T20:38:49.903Z,6.20
2022-10-11T20:49:01.158Z,6.00
2022-10-11T20:59:06.294Z,5.82
2022-10-11T21:09:12.666Z,5.69
2022-10-11T21:19:18.558Z,5.54
2022-10-11T21:29:22.969Z,5.38
2022-10-11T21:39:25.875Z,5.25
2022-10-11T21:49:30.506Z,5.15
2022-10-11T21:59:33.834Z,5.02
2022-10-11T22:09:38.360Z,4.89
2022-10-11T22:19:41.565Z,4.76
2022-10-11T22:29:45.830Z,4.66
2022-10-11T22:39:48.735Z,4.55
2022-10-11T22:49:53.056Z,4.49
2022-10-11T22:59:55.968Z,4.42
2022-10-11T23:10:00.332Z,4.36
2022-10-11T23:20:03.264Z,4.32
2022-10-11T23:30:09.089Z,4.26
2022-10-11T23:40:12.209Z,4.32
2022-10-11T23:50:16.639Z,4.33
